createdAt,value
2018-07-23T00:03:14.037Z,63.15
2018-07-23T00:08:17.134Z,62.45
2018-07-23T00:13:20.176Z,63.33
2018-07-23T00:18:23.203Z,63.82
2018-07-23T00:23:26.306Z,64.11
2018-07-23T00:28:29.273Z,63.85
2018-07-23T00:33:32.313Z,63.77
2018-07-23T00:38:35.377Z,63.97
2018-07-23T00:43:38.410Z,63.21
2018-07-23T00:48:41.494Z,64.37
2018-07-23T00:53:44.540Z,64.58
2018-07-23T00:58:47.541Z,64.33
2018-07-23T01:03:50.533Z,65.54
2018-07-23T01:08:53.746Z,65.46
2018-07-23T01:13:56.822Z,64.90
2018-07-23T01:18:59.930Z,65.56
2018-07-23T01:24:02.930Z,66.53
2018-07-23T01:29:05.997Z,67.10
2018-07-23T01:34:08.994Z,66.92
2018-07-23T01:39:12.013Z,65.89
2018-07-23T01:44:15.018Z,66.62
2018-07-23T01:49:18.027Z,66.29
2018-07-23T01:54:21.417Z,66.68
2018-07-23T01:59:24.389Z,67.87
2018-07-23T02:04:27.420Z,68.59
2018-07-23T02:09:30.428Z,68.88
2018-07-23T02:14:33.465Z,69.23
2018-07-23T02:19:36.548Z,70.05
2018-07-23T02:24:39.586Z,70.39
2018-07-23T02:29:42.588Z,71.45
2018-07-23T02:34:45.557Z,70.55
2018-07-23T02:39:48.607Z,69.83
2018-07-23T02:44:51.613Z,70.08
2018-07-23T02:49:54.625Z,69.26
2018-07-23T02:54:57.714Z,69.95
2018-07-23T03:00:00.729Z,70.61
2018-07-23T03:05:03.801Z,70.79
2018-07-23T03:10:07.258Z,69.24
2018-07-23T03:15:10.290Z,69.32
2018-07-23T03:20:13.350Z,69.77
2018-07-23T03:25:16.375Z,70.02
2018-07-23T03:30:19.425Z,69.72
2018-07-23T03:35:23.165Z,70.22
2018-07-23T03:40:26.325Z,70.41
2018-07-23T03:45:30.747Z,69.55
2018-07-23T03:50:33.796Z,69.81
2018-07-23T03:55:36.874Z,69.19
2018-07-23T04:00:39.873Z,69.22
2018-07-23T04:05:42.946Z,68.81
2018-07-23T04:10:46.148Z,68.29
2018-07-23T04:15:49.170Z,67.58
2018-07-23T04:20:52.265Z,68.88
2018-07-23T04:25:55.297Z,68.52
2018-07-23T04:30:58.329Z,68.62
2018-07-23T04:36:01.528Z,68.39
2018-07-23T04:41:04.602Z,67.34
2018-07-23T04:46:07.593Z,66.88
2018-07-23T04:51:10.635Z,66.65
2018-07-23T04:56:13.609Z,65.90
2018-07-23T05:01:16.628Z,65.75
2018-07-23T05:06:19.698Z,65.53
2018-07-23T05:11:22.801Z,64.87
2018-07-23T05:16:25.837Z,64.50
2018-07-23T05:21:28.906Z,64.66
2018-07-23T05:26:32.019Z,64.22
2018-07-23T05:31:35.256Z,64.43
2018-07-23T05:36:38.268Z,64.63
2018-07-23T05:41:41.282Z,65.07
2018-07-23T05:46:44.373Z,64.51
2018-07-23T05:51:47.394Z,63.96
2018-07-23T05:56:50.398Z,63.72
2018-07-23T06:01:53.424Z,63.19
2018-07-23T06:06:56.576Z,62.24
2018-07-23T06:11:59.510Z,62.11
2018-07-23T06:17:02.616Z,61.71
2018-07-23T06:22:05.721Z,60.73
2018-07-23T06:27:08.761Z,59.83
2018-07-23T06:32:11.961Z,60.00
2018-07-23T06:37:14.993Z,59.63
2018-07-23T06:42:18.058Z,58.63
2018-07-23T06:47:21.113Z,56.98
2018-07-23T06:52:24.348Z,55.74
2018-07-23T06:57:27.648Z,54.16
2018-07-23T07:02:30.621Z,53.03
2018-07-23T07:07:33.649Z,50.39
2018-07-23T07:12:36.681Z,51.15
2018-07-23T07:17:39.722Z,50.83
2018-07-23T07:22:42.822Z,50.52
2018-07-23T07:27:45.879Z,50.72
2018-07-23T07:32:48.921Z,50.78
2018-07-23T07:37:52.025Z,50.40
2018-07-23T07:42:55.049Z,50.46
2018-07-23T07:47:58.088Z,49.26
2018-07-23T07:53:01.161Z,48.89
2018-07-23T07:58:04.249Z,47.09
2018-07-23T08:03:07.313Z,46.80
2018-07-23T08:08:10.407Z,45.97
2018-07-23T08:13:13.442Z,46.07
2018-07-23T08:18:16.613Z,46.48
2018-07-23T08:23:19.719Z,46.03
2018-07-23T08:28:22.897Z,46.43
2018-07-23T08:33:26.158Z,45.96
2018-07-23T08:38:29.332Z,46.29
2018-07-23T08:43:32.393Z,45.77
2018-07-23T08:48:35.609Z,46.18
2018-07-23T08:53:38.653Z,46.70
2018-07-23T08:58:41.897Z,46.48
2018-07-23T09:03:44.974Z,46.47
2018-07-23T09:08:48.142Z,45.37
2018-07-23T09:13:51.174Z,46.33
2018-07-23T09:18:54.249Z,45.91
2018-07-23T09:23:57.246Z,44.77
2018-07-23T09:29:00.285Z,45.13
2018-07-23T09:34:03.369Z,44.72
2018-07-23T09:39:09.078Z,44.22
2018-07-23T09:44:12.155Z,44.42
2018-07-23T09:49:15.313Z,44.02
2018-07-23T09:54:18.327Z,44.57
2018-07-23T09:59:21.457Z,43.52
2018-07-23T10:04:24.546Z,44.00
2018-07-23T10:09:27.598Z,43.86
2018-07-23T10:14:30.630Z,43.51
2018-07-23T10:19:33.729Z,42.89
2018-07-23T10:24:36.725Z,42.37
2018-07-23T10:29:39.828Z,42.90
2018-07-23T10:34:42.842Z,42.72
2018-07-23T10:39:45.902Z,43.00
2018-07-23T10:44:49.030Z,41.67
2018-07-23T10:49:52.159Z,42.13
2018-07-23T10:54:55.467Z,40.48
2018-07-23T10:59:58.868Z,40.49
2018-07-23T11:05:02.718Z,39.92
2018-07-23T11:10:07.926Z,40.18
2018-07-23T11:15:12.270Z,39.20
2018-07-23T11:20:15.933Z,39.54
2018-07-23T11:25:38.979Z,39.55
2018-07-23T11:30:24.225Z,38.98
2018-07-23T11:35:28.332Z,38.61
2018-07-23T11:40:32.301Z,39.00
2018-07-23T11:45:36.317Z,39.04
2018-07-23T11:50:40.445Z,38.07
2018-07-23T11:55:44.568Z,37.46
2018-07-23T12:00:48.817Z,38.34
2018-07-23T12:05:52.652Z,36.81
2018-07-23T12:10:57.263Z,36.87
2018-07-23T12:16:01.005Z,37.17
2018-07-23T12:21:04.920Z,37.08
2018-07-23T12:26:08.021Z,36.93
2018-07-23T12:31:12.648Z,36.40
2018-07-23T12:36:17.089Z,35.71
2018-07-23T12:41:20.912Z,35.64
2018-07-23T12:46:24.000Z,36.12
2018-07-23T12:51:27.005Z,35.12
2018-07-23T12:56:30.040Z,36.02
2018-07-23T13:01:33.061Z,36.00
2018-07-23T13:06:36.142Z,35.47
2018-07-23T13:11:39.234Z,34.34
2018-07-23T13:16:42.269Z,34.65
2018-07-23T13:21:45.411Z,34.09
2018-07-23T13:26:48.511Z,33.64
2018-07-23T13:31:51.533Z,33.98
2018-07-23T13:36:54.558Z,32.95
2018-07-23T13:41:57.589Z,33.75
2018-07-23T13:47:00.613Z,33.87
2018-07-23T13:52:05.624Z,33.00
2018-07-23T13:57:08.792Z,33.56
2018-07-23T14:02:11.862Z,33.36
2018-07-23T14:07:14.926Z,33.00
2018-07-23T14:12:17.941Z,32.51
2018-07-23T14:17:20.977Z,31.63
2018-07-23T14:22:24.053Z,31.35
2018-07-23T14:27:27.118Z,31.77
2018-07-23T14:32:30.222Z,31.16
2018-07-23T14:37:33.579Z,31.25
2018-07-23T14:42:36.733Z,31.30
2018-07-23T14:47:39.763Z,31.11
2018-07-23T14:52:42.777Z,31.31
2018-07-23T14:57:45.947Z,31.49
2018-07-23T15:02:48.949Z,31.72
2018-07-23T15:07:52.100Z,31.46
2018-07-23T15:12:55.157Z,31.20
2018-07-23T15:17:58.217Z,31.20
2018-07-23T15:23:01.289Z,31.26
2018-07-23T15:28:04.427Z,30.86
2018-07-23T15:33:07.780Z,30.80
2018-07-23T15:38:10.838Z,31.47
2018-07-23T15:43:13.952Z,31.74
2018-07-23T15:48:17.069Z,31.44
2018-07-23T15:53:20.241Z,31.06
2018-07-23T15:58:23.323Z,30.80
2018-07-23T16:03:26.378Z,31.25
2018-07-23T16:08:29.394Z,30.83
2018-07-23T16:13:32.451Z,31.08
2018-07-23T16:18:35.538Z,30.51
2018-07-23T16:23:38.686Z,30.06
2018-07-23T16:28:41.854Z,30.45
2018-07-23T16:33:45.087Z,29.84
2018-07-23T16:38:48.094Z,30.81
2018-07-23T16:43:51.166Z,31.30
2018-07-23T16:48:54.297Z,30.87
2018-07-23T16:53:57.363Z,30.86
2018-07-23T16:59:00.406Z,31.01
2018-07-23T17:04:03.522Z,30.46
2018-07-23T17:09:10.029Z,30.98
2018-07-23T17:14:13.097Z,31.91
2018-07-23T17:19:16.145Z,31.98
2018-07-23T17:24:19.210Z,32.61
2018-07-23T17:29:22.309Z,32.20
2018-07-23T17:34:25.461Z,32.37
2018-07-23T17:39:28.493Z,33.82
2018-07-23T17:44:31.591Z,33.48
2018-07-23T17:49:34.605Z,33.32
2018-07-23T17:54:37.690Z,33.41
2018-07-23T17:59:40.821Z,34.18
2018-07-23T18:04:43.881Z,33.71
2018-07-23T18:09:46.985Z,33.73
2018-07-23T18:14:50.154Z,34.83
2018-07-23T18:19:53.307Z,34.91
2018-07-23T18:24:56.361Z,35.79
2018-07-23T18:29:59.629Z,35.30
2018-07-23T18:35:03.797Z,36.21
2018-07-23T18:40:06.805Z,35.87
2018-07-23T18:45:10.339Z,36.28
2018-07-23T18:50:13.583Z,36.61
2018-07-23T18:55:18.934Z,36.89
2018-07-23T19:00:23.920Z,37.96
2018-07-23T19:05:26.981Z,38.07
2018-07-23T19:10:30.390Z,39.08
2018-07-23T19:15:33.703Z,40.13
2018-07-23T19:20:37.285Z,41.50
2018-07-23T19:25:40.905Z,42.15
2018-07-23T19:30:44.761Z,42.34
2018-07-23T19:35:48.737Z,43.57
2018-07-23T19:40:51.883Z,44.06
2018-07-23T19:45:55.011Z,44.10
2018-07-23T19:50:58.129Z,44.40
2018-07-23T19:56:01.185Z,45.17
2018-07-23T20:01:04.341Z,45.96
2018-07-23T20:06:07.590Z,46.91
2018-07-23T20:11:10.707Z,47.45
2018-07-23T20:16:13.992Z,47.81
2018-07-23T20:21:17.219Z,47.85
2018-07-23T20:26:20.350Z,48.29
2018-07-23T20:31:23.426Z,48.46
2018-07-23T20:36:26.513Z,48.34
2018-07-23T20:41:29.617Z,48.87
2018-07-23T20:46:32.662Z,48.86
2018-07-23T20:51:35.760Z,49.67
2018-07-23T20:56:38.794Z,50.04
2018-07-23T21:01:41.906Z,50.30
2018-07-23T21:06:45.042Z,51.01
2018-07-23T21:11:48.119Z,51.24
2018-07-23T21:16:51.166Z,50.93
2018-07-23T21:21:54.406Z,51.73
2018-07-23T21:26:57.472Z,52.46
2018-07-23T21:32:00.574Z,53.24
2018-07-23T21:37:03.706Z,53.71
2018-07-23T21:42:06.902Z,54.21
2018-07-23T21:47:09.949Z,55.26
2018-07-23T21:52:13.121Z,54.70
2018-07-23T21:57:16.230Z,55.10
2018-07-23T22:02:19.478Z,54.89
2018-07-23T22:07:22.602Z,54.69
2018-07-23T22:12:25.644Z,54.71
2018-07-23T22:17:28.749Z,54.82
2018-07-23T22:22:31.822Z,55.52
2018-07-23T22:27:34.859Z,55.88
2018-07-23T22:32:37.925Z,55.72
2018-07-23T22:37:41.010Z,55.85
2018-07-23T22:42:44.102Z,56.05
2018-07-23T22:47:47.230Z,56.24
2018-07-23T22:52:50.256Z,56.80
2018-07-23T22:57:53.362Z,56.78
2018-07-23T23:02:56.459Z,57.00
2018-07-23T23:07:59.570Z,57.69
2018-07-23T23:13:02.707Z,58.05
2018-07-23T23:18:05.802Z,58.20
2018-07-23T23:23:08.914Z,58.13
2018-07-23T23:28:12.078Z,57.87
2018-07-23T23:33:15.130Z,58.07
2018-07-23T23:38:18.264Z,59.10
2018-07-23T23:43:21.374Z,61.82
2018-07-23T23:48:24.431Z,63.37
2018-07-23T23:53:27.566Z,61.67
2018-07-23T23:58:30.606Z,62.25
